createdAt,value
2023-05-11T00:01:24.815Z,7.60
2023-05-11T00:03:52.647Z,7.80
2023-05-11T00:06:19.723Z,7.00
2023-05-11T00:08:46.897Z,7.20
2023-05-11T00:11:13.939Z,6.50
2023-05-11T00:13:40.885Z,7.20
2023-05-11T00:16:07.944Z,7.20
2023-05-11T00:18:34.983Z,8.40
2023-05-11T00:21:02.477Z,8.30
2023-05-11T00:23:29.572Z,7.10
2023-05-11T00:25:56.525Z,6.50
2023-05-11T00:28:23.562Z,7.40
2023-05-11T00:30:50.540Z,7.20
2023-05-11T00:33:18.379Z,7.40
2023-05-11T00:35:45.671Z,7.60
2023-05-11T00:38:12.590Z,7.20
2023-05-11T00:40:39.543Z,7.00
2023-05-11T00:43:06.794Z,7.50
2023-05-11T00:45:33.812Z,6.80
2023-05-11T00:48:00.833Z,7.20
2023-05-11T00:50:27.986Z,7.10
2023-05-11T00:52:55.979Z,6.90
2023-05-11T00:55:23.082Z,7.10
2023-05-11T00:57:50.069Z,6.60
2023-05-11T01:00:17.366Z,7.10
2023-05-11T01:02:45.269Z,6.50
2023-05-11T01:05:12.784Z,6.60
2023-05-11T01:08:00.351Z,6.60
2023-05-11T01:10:56.552Z,6.40
2023-05-11T01:13:28.312Z,6.50
2023-05-11T01:15:59.116Z,6.60
2023-05-11T01:18:39.586Z,6.50
2023-05-11T01:21:10.913Z,6.70
2023-05-11T01:23:45.068Z,6.30
2023-05-11T01:26:36.094Z,6.60
2023-05-11T01:29:30.085Z,6.60
2023-05-11T01:31:57.120Z,6.30
2023-05-11T01:34:30.703Z,6.60
2023-05-11T01:37:10.216Z,6.30
2023-05-11T01:39:40.402Z,6.20
2023-05-11T01:42:09.362Z,6.40
2023-05-11T01:44:38.007Z,6.80
2023-05-11T01:47:04.931Z,5.90
2023-05-11T01:49:33.846Z,6.10
2023-05-11T01:52:02.902Z,5.90
2023-05-11T01:54:30.618Z,6.20
2023-05-11T01:56:57.586Z,5.80
2023-05-11T01:59:25.783Z,6.10
2023-05-11T02:01:53.157Z,6.20
2023-05-11T02:04:20.300Z,6.10
2023-05-11T02:06:48.471Z,6.40
2023-05-11T02:09:18.630Z,6.20
2023-05-11T02:11:46.847Z,6.10
2023-05-11T02:14:15.962Z,5.90
2023-05-11T02:16:43.023Z,6.10
2023-05-11T02:19:10.005Z,6.00
2023-05-11T02:21:37.010Z,6.20
2023-05-11T02:24:05.372Z,6.70
2023-05-11T02:26:32.507Z,6.50
2023-05-11T02:28:59.532Z,6.40
2023-05-11T02:31:29.146Z,6.50
2023-05-11T02:34:00.512Z,6.70
2023-05-11T02:36:28.656Z,6.60
2023-05-11T02:39:02.941Z,6.30
2023-05-11T02:41:30.236Z,6.20
2023-05-11T02:44:01.543Z,6.20
2023-05-11T02:46:32.111Z,6.40
2023-05-11T02:49:01.355Z,6.30
2023-05-11T02:51:38.990Z,6.40
2023-05-11T02:54:10.863Z,6.40
2023-05-11T02:56:40.753Z,6.40
2023-05-11T02:59:09.074Z,7.00
2023-05-11T03:01:36.131Z,6.30
2023-05-11T03:04:06.644Z,6.20
2023-05-11T03:06:33.676Z,6.60
2023-05-11T03:09:01.837Z,7.00
2023-05-11T03:11:29.945Z,7.20
2023-05-11T03:13:56.927Z,6.80
2023-05-11T03:16:23.962Z,7.20
2023-05-11T03:18:51.118Z,7.50
2023-05-11T03:21:18.652Z,6.60
2023-05-11T03:23:46.079Z,7.20
2023-05-11T03:26:14.625Z,6.80
2023-05-11T03:28:41.606Z,7.00
2023-05-11T03:31:08.771Z,7.00
2023-05-11T03:33:35.907Z,7.10
2023-05-11T03:36:03.775Z,7.00
2023-05-11T03:38:31.217Z,6.50
2023-05-11T03:40:58.438Z,6.90
2023-05-11T03:43:27.328Z,6.60
2023-05-11T03:45:55.795Z,7.30
2023-05-11T03:48:22.981Z,7.10
2023-05-11T03:50:51.055Z,6.90
2023-05-11T03:53:18.014Z,6.70
2023-05-11T03:55:45.007Z,6.70
2023-05-11T03:58:11.959Z,6.60
2023-05-11T04:00:40.040Z,6.80
2023-05-11T04:03:09.419Z,7.10
2023-05-11T04:05:37.934Z,7.10
2023-05-11T04:08:07.915Z,7.20
2023-05-11T04:10:35.133Z,7.10
2023-05-11T04:13:02.079Z,8.20
2023-05-11T04:15:30.044Z,7.50
2023-05-11T04:17:56.990Z,7.30
2023-05-11T04:20:23.975Z,7.50
2023-05-11T04:22:51.081Z,7.70
2023-05-11T04:25:18.093Z,7.60
2023-05-11T04:27:45.558Z,8.40
2023-05-11T04:30:15.188Z,9.10
2023-05-11T04:32:42.293Z,9.80
2023-05-11T04:35:10.040Z,11.80
2023-05-11T04:37:38.820Z,10.00
2023-05-11T04:40:08.675Z,9.80
2023-05-11T04:42:40.912Z,9.30
2023-05-11T04:45:14.464Z,9.00
2023-05-11T04:47:42.251Z,9.00
2023-05-11T04:50:12.164Z,8.60
2023-05-11T04:52:39.531Z,9.10
2023-05-11T04:55:07.116Z,8.50
2023-05-11T04:57:34.917Z,8.40
2023-05-11T05:00:04.294Z,9.10
2023-05-11T05:02:33.093Z,9.80
2023-05-11T05:05:00.911Z,10.20
2023-05-11T05:07:27.895Z,10.60
2023-05-11T05:09:56.207Z,9.70
2023-05-11T05:12:24.048Z,8.50
2023-05-11T05:14:50.999Z,8.30
2023-05-11T05:17:18.298Z,8.00
2023-05-11T05:19:45.528Z,7.70
2023-05-11T05:22:12.453Z,7.00
2023-05-11T05:24:39.479Z,7.00
2023-05-11T05:27:06.648Z,7.20
2023-05-11T05:29:33.689Z,6.80
2023-05-11T05:32:00.728Z,6.20
2023-05-11T05:34:28.366Z,5.80
2023-05-11T05:36:55.611Z,5.70
2023-05-11T05:39:22.579Z,6.00
2023-05-11T05:41:49.593Z,5.40
2023-05-11T05:44:16.635Z,6.30
2023-05-11T05:46:44.187Z,5.70
2023-05-11T05:49:11.438Z,5.40
2023-05-11T05:51:38.497Z,6.00
2023-05-11T05:54:06.203Z,5.80
2023-05-11T05:56:35.211Z,5.90
2023-05-11T05:59:02.426Z,5.50
2023-05-11T06:01:29.511Z,5.30
2023-05-11T06:03:56.583Z,4.60
2023-05-11T06:06:24.953Z,4.10
2023-05-11T06:08:51.994Z,4.20
2023-05-11T06:11:19.322Z,4.40
2023-05-11T06:13:46.538Z,4.10
2023-05-11T06:16:13.660Z,3.90
2023-05-11T06:18:40.891Z,3.80
2023-05-11T06:21:07.977Z,3.70
2023-05-11T06:23:35.761Z,3.80
2023-05-11T06:26:02.699Z,3.50
2023-05-11T06:28:31.466Z,3.60
2023-05-11T06:31:01.543Z,3.70
2023-05-11T06:33:30.702Z,4.10
2023-05-11T06:35:58.303Z,3.50
2023-05-11T06:38:26.341Z,3.50
2023-05-11T06:40:53.646Z,3.70
2023-05-11T06:43:20.734Z,3.70
2023-05-11T06:45:48.766Z,3.30
2023-05-11T06:48:15.855Z,4.00
2023-05-11T06:50:42.833Z,3.50
2023-05-11T06:53:13.395Z,3.60
2023-05-11T06:55:40.314Z,3.50
2023-05-11T06:58:07.409Z,3.80
2023-05-11T07:00:34.475Z,4.40
2023-05-11T07:03:01.498Z,3.60
2023-05-11T07:05:28.521Z,3.80
2023-05-11T07:07:55.499Z,3.50
2023-05-11T07:10:23.566Z,3.60
2023-05-11T07:12:50.606Z,3.60
2023-05-11T07:15:17.545Z,3.90
2023-05-11T07:17:47.865Z,3.80
2023-05-11T07:20:15.159Z,3.90
2023-05-11T07:22:42.152Z,3.80
2023-05-11T07:25:10.027Z,3.40
2023-05-11T07:27:37.189Z,3.80
2023-05-11T07:30:04.884Z,4.00
2023-05-11T07:32:32.675Z,3.90
2023-05-11T07:34:59.628Z,3.90
2023-05-11T07:37:26.650Z,3.60
2023-05-11T07:39:54.526Z,3.40
2023-05-11T07:42:21.636Z,4.10
2023-05-11T07:44:48.591Z,3.70
2023-05-11T07:47:17.528Z,3.40
2023-05-11T07:49:44.806Z,3.60
2023-05-11T07:52:11.907Z,3.40
2023-05-11T07:54:40.364Z,3.40
2023-05-11T07:57:08.174Z,3.40
2023-05-11T07:59:35.529Z,3.40
2023-05-11T08:02:04.376Z,3.50
2023-05-11T08:04:32.840Z,3.20
2023-05-11T08:06:59.837Z,2.90
2023-05-11T08:09:27.000Z,3.20
2023-05-11T08:11:56.653Z,3.10
2023-05-11T08:14:25.100Z,2.90
2023-05-11T08:16:52.136Z,2.70
2023-05-11T08:19:19.094Z,2.40
2023-05-11T08:21:47.076Z,2.90
2023-05-11T08:24:14.116Z,2.80
2023-05-11T08:26:41.081Z,3.00
2023-05-11T08:29:08.046Z,2.80
2023-05-11T08:31:35.320Z,2.90
2023-05-11T08:34:13.714Z,3.00
2023-05-11T08:36:45.251Z,2.90
2023-05-11T08:39:12.354Z,2.90
2023-05-11T08:41:39.314Z,3.00
2023-05-11T08:44:06.234Z,3.00
2023-05-11T08:46:36.435Z,3.10
2023-05-11T08:49:03.414Z,3.10
2023-05-11T08:51:30.548Z,2.90
2023-05-11T08:53:59.455Z,2.40
2023-05-11T08:56:27.912Z,2.40
2023-05-11T08:58:56.177Z,3.10
2023-05-11T09:01:23.698Z,2.60
2023-05-11T09:03:50.992Z,2.70
2023-05-11T09:06:18.106Z,3.10
2023-05-11T09:08:45.893Z,3.00
2023-05-11T09:11:13.088Z,3.00
2023-05-11T09:13:40.903Z,3.00
2023-05-11T09:16:19.533Z,3.00
2023-05-11T09:18:55.991Z,2.80
2023-05-11T09:21:23.279Z,2.90
2023-05-11T09:23:50.845Z,2.60
2023-05-11T09:26:20.899Z,2.90
2023-05-11T09:29:02.437Z,2.80
2023-05-11T09:31:43.957Z,2.80
2023-05-11T09:34:21.732Z,3.00
2023-05-11T09:36:50.659Z,2.90
2023-05-11T09:39:35.208Z,3.00
2023-05-11T09:42:14.668Z,2.80
2023-05-11T09:44:41.997Z,3.10
2023-05-11T09:47:19.169Z,3.20
2023-05-11T09:49:47.149Z,3.10
2023-05-11T09:52:18.352Z,2.60
2023-05-11T09:54:52.919Z,3.00
2023-05-11T09:57:27.150Z,3.00
2023-05-11T09:59:54.513Z,2.90
2023-05-11T10:02:26.468Z,3.00
2023-05-11T10:04:55.161Z,3.00
2023-05-11T10:07:25.374Z,3.90
2023-05-11T10:09:53.913Z,3.30
2023-05-11T10:12:22.102Z,2.80
2023-05-11T10:14:51.823Z,2.60
2023-05-11T10:17:19.306Z,2.90
2023-05-11T10:19:49.418Z,3.20
2023-05-11T10:22:18.090Z,3.00
2023-05-11T10:24:45.078Z,2.90
2023-05-11T10:27:13.197Z,2.90
2023-05-11T10:29:40.455Z,2.80
2023-05-11T10:32:08.008Z,3.00
2023-05-11T10:34:35.454Z,2.70
2023-05-11T10:37:03.337Z,2.60
2023-05-11T10:39:30.410Z,3.00
2023-05-11T10:42:33.586Z,2.80
2023-05-11T10:45:07.080Z,2.80
2023-05-11T10:48:12.453Z,3.20
2023-05-11T10:51:19.904Z,2.70
2023-05-11T10:53:59.711Z,2.90
2023-05-11T10:56:26.661Z,2.70
2023-05-11T10:59:05.997Z,3.30
2023-05-11T11:01:40.207Z,2.50
2023-05-11T11:04:11.208Z,2.80
2023-05-11T11:06:42.974Z,2.70
2023-05-11T11:09:14.717Z,3.10
2023-05-11T11:11:46.503Z,3.20
2023-05-11T11:14:14.710Z,3.00
2023-05-11T11:16:42.160Z,3.20
2023-05-11T11:19:32.300Z,3.10
2023-05-11T11:22:02.362Z,2.80
2023-05-11T11:24:49.800Z,2.90
2023-05-11T11:27:16.917Z,2.80
2023-05-11T11:30:17.691Z,3.00
2023-05-11T11:32:46.387Z,2.90
2023-05-11T11:35:35.516Z,3.00
2023-05-11T11:38:03.255Z,3.00
2023-05-11T11:40:50.529Z,3.20
2023-05-11T11:43:21.205Z,3.10
2023-05-11T11:46:01.739Z,3.10
2023-05-11T11:48:37.926Z,3.70
2023-05-11T11:51:07.459Z,3.00
2023-05-11T11:53:37.978Z,3.30
2023-05-11T11:56:06.062Z,3.00
2023-05-11T11:58:53.272Z,3.40
2023-05-11T12:01:22.150Z,3.80
2023-05-11T12:04:24.752Z,4.10
2023-05-11T12:06:57.493Z,4.20
2023-05-11T12:09:26.726Z,3.50
2023-05-11T12:11:54.066Z,3.10
2023-05-11T12:14:21.858Z,3.00
2023-05-11T12:17:05.931Z,3.30
2023-05-11T12:19:32.996Z,3.30
2023-05-11T12:22:02.153Z,4.50
2023-05-11T12:24:29.340Z,8.40
2023-05-11T12:26:57.602Z,6.20
2023-05-11T12:29:24.893Z,4.10
2023-05-11T12:31:52.956Z,3.50
2023-05-11T12:34:24.314Z,3.40
2023-05-11T12:36:53.050Z,3.10
2023-05-11T12:39:24.901Z,2.90
2023-05-11T12:41:53.542Z,3.60
2023-05-11T12:44:21.726Z,3.00
2023-05-11T12:46:49.171Z,3.00
2023-05-11T12:51:52.750Z,2.70
2023-05-11T12:54:48.272Z,2.90
2023-05-11T12:57:33.788Z,3.00
2023-05-11T13:00:14.132Z,2.80
2023-05-11T13:02:54.842Z,2.90
2023-05-11T13:05:26.799Z,2.70
2023-05-11T13:08:00.997Z,2.90
2023-05-11T13:10:28.033Z,3.10
2023-05-11T13:12:55.386Z,2.60
2023-05-11T13:15:24.580Z,3.20
2023-05-11T13:17:59.269Z,3.30
2023-05-11T13:20:28.105Z,2.80
2023-05-11T13:23:05.721Z,2.90
2023-05-11T13:25:32.987Z,2.50
2023-05-11T13:28:01.946Z,2.80
2023-05-11T13:30:28.975Z,2.60
2023-05-11T13:32:56.122Z,2.90
2023-05-11T13:35:23.242Z,2.90
2023-05-11T13:37:50.204Z,3.00
2023-05-11T13:40:17.213Z,2.80
2023-05-11T13:42:44.125Z,3.10
2023-05-11T13:45:12.259Z,2.90
2023-05-11T13:47:39.322Z,2.60
2023-05-11T13:50:07.370Z,3.10
2023-05-11T13:52:34.365Z,2.80
2023-05-11T13:55:01.414Z,3.00
2023-05-11T13:57:28.344Z,3.10
2023-05-11T13:59:55.466Z,2.80
2023-05-11T14:02:22.668Z,3.20
2023-05-11T14:04:49.739Z,2.90
2023-05-11T14:07:16.956Z,3.30
2023-05-11T14:09:44.028Z,3.00
2023-05-11T14:12:11.146Z,2.70
2023-05-11T14:14:38.143Z,2.80
2023-05-11T14:17:06.064Z,2.70
2023-05-11T14:19:33.191Z,2.70
2023-05-11T14:22:01.259Z,2.70
2023-05-11T14:24:28.416Z,2.70
2023-05-11T14:26:55.381Z,2.90
2023-05-11T14:29:22.442Z,3.10
2023-05-11T14:31:50.078Z,2.90
2023-05-11T14:34:17.077Z,2.90
2023-05-11T14:36:44.098Z,2.80
2023-05-11T14:39:11.024Z,2.60
2023-05-11T14:41:38.046Z,6.50
2023-05-11T14:44:05.177Z,4.10
2023-05-11T14:46:32.174Z,2.80
2023-05-11T14:48:59.116Z,2.90
2023-05-11T14:51:26.118Z,3.00
2023-05-11T14:53:53.056Z,3.00
2023-05-11T14:56:20.342Z,2.80
2023-05-11T14:58:47.286Z,3.30
2023-05-11T15:01:14.285Z,2.80
2023-05-11T15:03:41.615Z,2.60
2023-05-11T15:06:08.776Z,2.70
2023-05-11T15:08:36.541Z,2.70
2023-05-11T15:11:03.690Z,2.80
2023-05-11T15:13:30.999Z,2.70
2023-05-11T15:15:58.034Z,2.60
2023-05-11T15:18:25.237Z,2.90
2023-05-11T15:20:52.221Z,2.90
2023-05-11T15:23:19.369Z,3.00
2023-05-11T15:25:47.403Z,3.20
2023-05-11T15:28:14.920Z,2.90
2023-05-11T15:30:42.366Z,3.00
2023-05-11T15:33:10.127Z,3.50
2023-05-11T15:35:37.929Z,3.30
2023-05-11T15:38:05.198Z,3.00
2023-05-11T15:40:32.647Z,2.80
2023-05-11T15:43:00.347Z,2.70
2023-05-11T15:45:27.819Z,3.00
2023-05-11T15:47:54.954Z,2.60
2023-05-11T15:50:22.581Z,3.10
2023-05-11T15:52:50.582Z,3.20
2023-05-11T15:55:18.214Z,3.30
2023-05-11T15:57:46.365Z,2.80
2023-05-11T16:00:14.146Z,3.50
2023-05-11T16:02:42.861Z,3.50
2023-05-11T16:05:09.884Z,3.40
2023-05-11T16:07:36.852Z,3.50
2023-05-11T16:10:03.989Z,3.00
2023-05-11T16:12:31.105Z,3.60
2023-05-11T16:14:58.065Z,3.20
2023-05-11T16:17:25.640Z,3.10
2023-05-11T16:19:53.027Z,41.60
2023-05-11T16:22:20.321Z,8.50
2023-05-11T16:24:47.340Z,4.60
2023-05-11T16:27:14.263Z,3.20
2023-05-11T16:29:41.291Z,3.00
2023-05-11T16:32:08.316Z,3.40
2023-05-11T16:34:35.354Z,3.10
2023-05-11T16:37:02.604Z,3.00
2023-05-11T16:39:29.577Z,3.30
2023-05-11T16:41:56.563Z,3.50
2023-05-11T16:44:24.008Z,3.90
2023-05-11T16:46:52.582Z,4.40
2023-05-11T16:49:20.230Z,6.30
2023-05-11T16:51:48.097Z,6.60
2023-05-11T16:54:15.083Z,5.80
2023-05-11T16:56:42.096Z,6.00
2023-05-11T16:59:10.773Z,7.10
2023-05-11T17:01:38.191Z,7.60
2023-05-11T17:04:05.378Z,10.70
2023-05-11T17:06:33.036Z,10.40
2023-05-11T17:09:00.362Z,6.80
2023-05-11T17:11:27.842Z,5.30
2023-05-11T17:13:54.959Z,5.10
2023-05-11T17:16:21.975Z,5.00
2023-05-11T17:18:49.063Z,4.30
2023-05-11T17:21:17.402Z,5.60
2023-05-11T17:23:45.644Z,5.80
2023-05-11T17:26:12.661Z,4.80
2023-05-11T17:28:39.693Z,5.90
2023-05-11T17:31:14.677Z,10.90
2023-05-11T17:33:42.085Z,14.50
2023-05-11T17:36:09.759Z,10.40
2023-05-11T17:58:32.623Z,10.50
2023-05-11T18:01:09.413Z,9.40
2023-05-11T18:03:42.247Z,10.20
2023-05-11T18:06:11.926Z,10.80
2023-05-11T18:08:39.311Z,9.40
2023-05-11T18:11:12.849Z,9.30
2023-05-11T18:13:40.486Z,10.10
2023-05-11T18:16:11.987Z,9.60
2023-05-11T18:18:42.038Z,9.50
2023-05-11T18:21:15.403Z,10.40
2023-05-11T18:23:45.357Z,11.50
2023-05-11T18:26:16.448Z,10.80
2023-05-11T18:28:46.268Z,9.60
2023-05-11T18:31:18.977Z,10.00
2023-05-11T18:33:46.917Z,9.40
2023-05-11T18:36:17.699Z,10.60
2023-05-11T18:38:49.112Z,10.00
2023-05-11T18:41:22.855Z,11.20
2023-05-11T18:43:54.835Z,11.70
2023-05-11T18:46:22.935Z,9.60
2023-05-11T18:48:55.719Z,12.40
2023-05-11T18:51:26.226Z,11.10
2023-05-11T18:53:53.743Z,11.90
2023-05-11T18:56:24.332Z,12.10
2023-05-11T18:58:54.332Z,12.40
2023-05-11T19:01:46.634Z,12.00
2023-05-11T19:04:17.757Z,11.90
2023-05-11T19:06:46.226Z,11.90
2023-05-11T19:09:29.652Z,12.10
2023-05-11T19:12:08.509Z,13.80
2023-05-11T19:22:56.825Z,15.50
2023-05-11T19:25:24.444Z,14.70
2023-05-11T19:33:27.500Z,16.90
2023-05-11T19:36:20.538Z,16.80
2023-05-11T19:41:55.718Z,17.50
2023-05-11T19:51:28.238Z,22.70
2023-05-11T19:54:30.089Z,22.80
2023-05-11T19:57:18.471Z,21.20
2023-05-11T20:00:41.702Z,23.30
2023-05-11T20:03:52.573Z,21.80
2023-05-11T20:08:33.296Z,22.30
2023-05-11T20:11:32.259Z,24.50
2023-05-11T20:14:48.606Z,24.40
2023-05-11T20:18:05.772Z,22.70
2023-05-11T20:21:03.117Z,22.80
2023-05-11T20:24:34.325Z,22.90
2023-05-11T20:28:12.791Z,21.10
2023-05-11T20:31:40.927Z,22.70
2023-05-11T20:34:49.928Z,22.20
2023-05-11T20:38:27.136Z,21.40
2023-05-11T20:41:51.374Z,23.00
2023-05-11T20:45:05.386Z,21.80
2023-05-11T20:48:53.410Z,23.40
2023-05-11T20:52:41.828Z,22.20
2023-05-11T20:55:22.288Z,22.00
2023-05-11T21:00:03.535Z,22.40
2023-05-11T21:02:33.508Z,21.70
2023-05-11T21:05:37.530Z,22.70
2023-05-11T21:11:59.730Z,21.00
2023-05-11T21:15:17.750Z,21.60
2023-05-11T21:18:35.665Z,22.70
2023-05-11T21:21:29.173Z,23.30
2023-05-11T21:24:48.633Z,23.10
2023-05-11T21:27:49.783Z,23.60
2023-05-11T21:31:25.130Z,23.60
2023-05-11T21:34:53.221Z,22.80
2023-05-11T21:38:26.861Z,22.00
2023-05-11T21:41:53.758Z,24.20
2023-05-11T21:45:13.352Z,23.30
2023-05-11T21:49:01.588Z,24.00
2023-05-11T21:52:48.653Z,24.10
2023-05-11T21:56:33.287Z,24.00
2023-05-11T22:03:36.816Z,22.20
2023-05-11T22:07:17.968Z,24.70
2023-05-11T22:11:05.094Z,25.80
2023-05-11T22:14:53.389Z,31.80
2023-05-11T22:18:18.864Z,28.90
2023-05-11T22:22:07.016Z,31.00
2023-05-11T22:25:45.375Z,29.70
2023-05-11T22:29:32.268Z,27.50
2023-05-11T22:33:20.311Z,28.40
2023-05-11T22:36:58.513Z,28.40
2023-05-11T22:40:20.553Z,27.80
2023-05-11T22:43:58.838Z,29.40
2023-05-11T22:47:06.513Z,30.40
2023-05-11T22:50:54.868Z,29.80
2023-05-11T22:54:25.679Z,30.50
2023-05-11T22:58:13.772Z,29.50
2023-05-11T23:02:01.690Z,29.10
2023-05-11T23:05:32.628Z,31.70
2023-05-11T23:08:36.572Z,34.10
2023-05-11T23:12:04.503Z,34.00
2023-05-11T23:15:34.749Z,34.30
2023-05-11T23:18:55.827Z,31.30
2023-05-11T23:22:22.946Z,30.50
2023-05-11T23:25:58.271Z,29.30
2023-05-11T23:29:28.509Z,26.40
2023-05-11T23:33:09.411Z,28.20
2023-05-11T23:36:48.591Z,29.20
2023-05-11T23:40:36.611Z,29.10
2023-05-11T23:44:17.390Z,26.80
2023-05-11T23:47:55.317Z,26.10
2023-05-11T23:51:43.553Z,25.70
2023-05-11T23:55:24.578Z,25.40
2023-05-11T23:59:12.519Z,24.70
